createdAt,value
2023-02-08T00:00:59.204Z,27.70
2023-02-08T00:03:29.142Z,27.67
2023-02-08T00:05:56.571Z,29.85
2023-02-08T00:08:23.775Z,23.20
2023-02-08T00:10:51.415Z,25.45
2023-02-08T00:13:18.784Z,24.25
2023-02-08T00:15:47.167Z,25.88
2023-02-08T00:18:14.834Z,26.77
2023-02-08T00:20:43.080Z,25.95
2023-02-08T00:23:11.223Z,24.70
2023-02-08T00:25:39.010Z,26.85
2023-02-08T00:28:09.397Z,28.10
2023-02-08T00:30:36.859Z,33.47
2023-02-08T00:33:04.321Z,29.63
2023-02-08T00:35:32.636Z,32.28
2023-02-08T00:37:59.903Z,26.00
2023-02-08T00:40:27.874Z,28.45
2023-02-08T00:42:55.280Z,29.42
2023-02-08T00:45:23.770Z,26.10
2023-02-08T00:47:50.978Z,30.60
2023-02-08T00:50:18.306Z,24.13
2023-02-08T00:52:45.509Z,23.90
2023-02-08T00:55:12.792Z,29.63
2023-02-08T00:57:40.028Z,26.38
2023-02-08T01:00:08.418Z,27.42
2023-02-08T01:02:39.250Z,30.40
2023-02-08T01:05:07.177Z,27.27
2023-02-08T01:07:37.524Z,28.23
2023-02-08T01:10:06.197Z,30.63
2023-02-08T01:12:33.477Z,27.88
2023-02-08T01:15:00.697Z,34.25
2023-02-08T01:17:28.027Z,28.40
2023-02-08T01:19:55.408Z,29.88
2023-02-08T01:22:22.834Z,32.63
2023-02-08T01:24:50.128Z,27.33
2023-02-08T01:27:17.327Z,30.13
2023-02-08T01:29:44.570Z,28.85
2023-02-08T01:32:11.766Z,30.15
2023-02-08T01:34:39.106Z,28.52
2023-02-08T01:37:06.419Z,35.72
2023-02-08T01:39:33.981Z,29.95
2023-02-08T01:42:01.257Z,28.88
2023-02-08T01:45:06.095Z,29.33
2023-02-08T01:47:33.712Z,29.23
2023-02-08T01:50:01.313Z,33.63
2023-02-08T01:52:29.105Z,32.03
2023-02-08T01:55:16.099Z,31.33
2023-02-08T01:57:44.521Z,32.78
2023-02-08T02:00:18.505Z,35.30
2023-02-08T02:02:47.931Z,27.25
2023-02-08T02:05:17.571Z,33.30
2023-02-08T02:07:45.141Z,30.60
2023-02-08T02:10:15.196Z,29.35
2023-02-08T02:12:43.037Z,28.13
2023-02-08T02:15:11.109Z,30.25
2023-02-08T02:17:39.333Z,30.42
2023-02-08T02:20:37.700Z,32.10
2023-02-08T02:23:28.157Z,30.33
2023-02-08T02:26:13.528Z,34.65
2023-02-08T02:28:53.042Z,26.77
2023-02-08T02:31:44.502Z,29.25
2023-02-08T02:34:20.537Z,29.83
2023-02-08T02:36:57.113Z,29.85
2023-02-08T02:39:53.841Z,30.85
2023-02-08T02:42:59.246Z,31.38
2023-02-08T02:45:35.652Z,35.83
2023-02-08T02:48:13.621Z,29.50
2023-02-08T02:50:51.443Z,31.00
2023-02-08T02:53:39.754Z,28.98
2023-02-08T02:56:13.946Z,31.02
2023-02-08T02:58:42.840Z,29.95
2023-02-08T03:01:10.090Z,28.17
2023-02-08T03:03:37.434Z,31.67
2023-02-08T03:06:20.411Z,26.40
2023-02-08T03:09:24.857Z,30.38
2023-02-08T03:12:03.192Z,27.20
2023-02-08T03:14:43.345Z,29.40
2023-02-08T03:17:21.856Z,34.17
2023-02-08T03:20:14.027Z,33.92
2023-02-08T03:22:49.292Z,31.70
2023-02-08T03:25:31.423Z,32.40
2023-02-08T03:28:24.035Z,33.83
2023-02-08T03:31:09.917Z,26.85
2023-02-08T03:33:58.182Z,31.95
2023-02-08T03:36:33.216Z,28.35
2023-02-08T03:39:05.037Z,34.17
2023-02-08T03:41:38.081Z,29.83
2023-02-08T03:44:37.860Z,31.33
2023-02-08T03:47:13.524Z,31.40
2023-02-08T03:49:43.421Z,31.48
2023-02-08T03:52:11.566Z,32.63
2023-02-08T03:55:05.474Z,32.45
2023-02-08T03:57:38.427Z,31.65
2023-02-08T04:00:16.628Z,31.95
2023-02-08T04:03:17.611Z,28.15
2023-02-08T04:05:44.979Z,32.55
2023-02-08T04:08:12.315Z,33.40
2023-02-08T04:10:39.954Z,31.73
2023-02-08T04:13:07.391Z,36.05
2023-02-08T04:15:34.677Z,32.38
2023-02-08T04:18:01.999Z,30.45
2023-02-08T04:20:29.225Z,29.02
2023-02-08T04:22:56.465Z,36.45
2023-02-08T04:25:23.713Z,32.47
2023-02-08T04:27:51.015Z,28.50
2023-02-08T04:30:18.481Z,32.13
2023-02-08T04:32:45.759Z,33.78
2023-02-08T04:35:12.938Z,33.10
2023-02-08T04:37:40.321Z,29.55
2023-02-08T04:40:07.948Z,36.80
2023-02-08T04:42:35.558Z,33.75
2023-02-08T04:45:02.883Z,33.42
2023-02-08T04:47:30.193Z,40.03
2023-02-08T04:49:57.389Z,34.70
2023-02-08T04:52:24.700Z,34.53
2023-02-08T04:54:52.106Z,33.00
2023-02-08T04:57:19.366Z,35.72
2023-02-08T04:59:46.638Z,31.77
2023-02-08T05:02:13.865Z,34.13
2023-02-08T05:04:41.033Z,36.95
2023-02-08T05:07:08.352Z,32.00
2023-02-08T05:09:35.520Z,37.28
2023-02-08T05:12:02.870Z,39.13
2023-02-08T05:14:30.217Z,37.97
2023-02-08T05:16:57.486Z,41.10
2023-02-08T05:19:24.786Z,40.83
2023-02-08T05:21:52.196Z,42.90
2023-02-08T05:24:19.453Z,35.83
2023-02-08T05:26:46.810Z,34.10
2023-02-08T05:29:14.658Z,36.78
2023-02-08T05:31:42.160Z,38.38
2023-02-08T05:34:09.604Z,35.80
2023-02-08T05:36:36.872Z,39.72
2023-02-08T05:39:05.048Z,40.13
2023-02-08T05:41:32.533Z,36.22
2023-02-08T05:43:59.837Z,40.47
2023-02-08T05:46:27.147Z,32.75
2023-02-08T05:48:54.431Z,36.72
2023-02-08T05:51:21.753Z,37.35
2023-02-08T05:53:48.999Z,37.03
2023-02-08T05:56:16.210Z,41.78
2023-02-08T05:58:43.675Z,38.85
2023-02-08T06:01:13.023Z,38.50
2023-02-08T06:03:40.837Z,40.33
2023-02-08T06:06:11.307Z,33.95
2023-02-08T06:08:39.228Z,34.03
2023-02-08T06:11:07.296Z,40.55
2023-02-08T06:13:34.690Z,50.17
2023-02-08T06:16:02.272Z,39.63
2023-02-08T06:18:30.066Z,41.08
2023-02-08T06:20:57.638Z,36.40
2023-02-08T06:23:25.253Z,45.92
2023-02-08T06:25:52.839Z,38.75
2023-02-08T06:28:20.152Z,42.80
2023-02-08T06:30:50.447Z,36.08
2023-02-08T06:33:18.490Z,39.60
2023-02-08T06:35:46.960Z,40.33
2023-02-08T06:38:14.861Z,50.88
2023-02-08T06:40:42.618Z,50.42
2023-02-08T06:43:09.986Z,46.05
2023-02-08T06:45:37.363Z,52.75
2023-02-08T06:48:04.982Z,44.53
2023-02-08T06:50:32.791Z,45.28
2023-02-08T06:53:00.111Z,42.55
2023-02-08T06:55:27.467Z,42.95
2023-02-08T06:57:55.457Z,44.17
2023-02-08T07:00:23.194Z,48.90
2023-02-08T07:02:52.269Z,52.47
2023-02-08T07:05:19.496Z,49.40
2023-02-08T07:07:48.690Z,43.38
2023-02-08T07:10:16.965Z,43.00
2023-02-08T07:12:44.365Z,45.40
2023-02-08T07:15:13.349Z,47.53
2023-02-08T07:17:40.765Z,48.60
2023-02-08T07:20:09.179Z,46.63
2023-02-08T07:22:36.418Z,49.75
2023-02-08T07:25:04.503Z,44.90
2023-02-08T07:27:31.659Z,43.95
2023-02-08T07:29:58.961Z,43.80
2023-02-08T07:32:26.402Z,44.55
2023-02-08T07:34:54.652Z,45.97
2023-02-08T07:37:21.956Z,49.05
2023-02-08T07:39:49.288Z,43.22
2023-02-08T07:42:16.515Z,42.95
2023-02-08T07:44:54.565Z,42.55
2023-02-08T07:47:21.844Z,48.35
2023-02-08T07:49:49.215Z,47.17
2023-02-08T07:52:16.562Z,48.17
2023-02-08T07:54:43.734Z,42.00
2023-02-08T07:57:10.982Z,41.95
2023-02-08T07:59:38.192Z,49.22
2023-02-08T08:02:05.534Z,46.05
2023-02-08T08:04:32.777Z,44.30
2023-02-08T08:07:00.017Z,41.75
2023-02-08T08:09:27.521Z,46.95
2023-02-08T08:11:54.743Z,47.63
2023-02-08T08:14:21.945Z,46.67
2023-02-08T08:16:49.248Z,44.80
2023-02-08T08:19:16.775Z,45.40
2023-02-08T08:21:43.976Z,49.65
2023-02-08T08:24:11.235Z,44.47
2023-02-08T08:26:38.518Z,45.40
2023-02-08T08:29:06.576Z,45.47
2023-02-08T08:31:33.883Z,43.40
2023-02-08T08:34:01.150Z,42.17
2023-02-08T08:36:28.481Z,45.10
2023-02-08T08:38:55.720Z,53.25
2023-02-08T08:41:23.409Z,46.58
2023-02-08T08:43:50.614Z,45.70
2023-02-08T08:46:18.076Z,47.58
2023-02-08T08:48:46.830Z,42.78
2023-02-08T08:51:14.357Z,43.97
2023-02-08T08:53:41.734Z,53.30
2023-02-08T08:56:09.276Z,49.58
2023-02-08T08:58:36.568Z,41.53
2023-02-08T09:01:03.961Z,42.92
2023-02-08T09:03:31.205Z,42.05
2023-02-08T09:05:58.505Z,43.90
2023-02-08T09:08:25.706Z,41.75
2023-02-08T09:10:52.887Z,42.88
2023-02-08T09:13:21.408Z,41.60
2023-02-08T09:15:49.445Z,41.33
2023-02-08T09:18:17.161Z,43.55
2023-02-08T09:20:45.127Z,43.40
2023-02-08T09:23:14.613Z,45.80
2023-02-08T09:25:41.890Z,39.33
2023-02-08T09:28:09.314Z,43.28
2023-02-08T09:30:36.610Z,42.47
2023-02-08T09:33:03.836Z,38.60
2023-02-08T09:35:31.135Z,39.85
2023-02-08T09:37:58.467Z,41.30
2023-02-08T09:40:29.660Z,45.92
2023-02-08T09:43:21.341Z,40.83
2023-02-08T09:46:00.152Z,47.20
2023-02-08T09:48:39.150Z,43.55
2023-02-08T09:51:11.590Z,45.35
2023-02-08T09:53:47.548Z,39.75
2023-02-08T09:56:19.419Z,42.13
2023-02-08T09:58:52.989Z,41.78
2023-02-08T10:01:29.893Z,39.80
2023-02-08T10:04:03.110Z,43.03
2023-02-08T10:06:31.654Z,35.72
2023-02-08T10:09:02.926Z,33.28
2023-02-08T10:11:45.140Z,35.40
2023-02-08T10:14:55.085Z,34.47
2023-02-08T10:17:34.419Z,36.40
2023-02-08T10:20:10.794Z,33.30
2023-02-08T10:22:56.017Z,37.10
2023-02-08T10:25:54.393Z,36.63
2023-02-08T10:28:36.024Z,36.10
2023-02-08T10:31:21.935Z,30.08
2023-02-08T10:34:30.091Z,34.92
2023-02-08T10:36:57.375Z,30.50
2023-02-08T10:39:34.206Z,34.20
2023-02-08T10:42:04.734Z,32.03
2023-02-08T10:44:48.502Z,30.90
2023-02-08T10:47:20.075Z,34.58
2023-02-08T10:50:04.637Z,33.22
2023-02-08T10:52:32.417Z,29.73
2023-02-08T10:54:59.982Z,32.10
2023-02-08T10:57:35.123Z,34.00
2023-02-08T11:00:11.509Z,28.83
2023-02-08T11:02:42.812Z,29.90
2023-02-08T11:05:23.495Z,26.55
2023-02-08T11:08:06.606Z,26.35
2023-02-08T11:10:34.265Z,32.88
2023-02-08T11:13:19.799Z,29.80
2023-02-08T11:15:54.583Z,28.50
2023-02-08T11:18:40.132Z,27.73
2023-02-08T11:21:12.123Z,26.42
2023-02-08T11:26:32.851Z,26.83
2023-02-08T11:29:15.090Z,24.95
2023-02-08T11:34:39.355Z,27.70
2023-02-08T11:37:26.103Z,32.17
2023-02-08T11:39:58.475Z,27.40
2023-02-08T11:42:29.959Z,24.85
2023-02-08T11:45:00.112Z,23.85
2023-02-08T11:47:31.497Z,25.70
2023-02-08T11:50:02.470Z,24.77
2023-02-08T11:52:39.381Z,22.80
2023-02-08T11:55:25.366Z,21.33
2023-02-08T11:57:55.811Z,23.77
2023-02-08T12:00:26.599Z,23.02
2023-02-08T12:03:01.450Z,23.77
2023-02-08T12:05:45.155Z,25.33
2023-02-08T12:08:47.865Z,27.00
2023-02-08T12:11:47.427Z,21.17
2023-02-08T12:14:27.611Z,23.35
2023-02-08T12:17:14.556Z,27.50
2023-02-08T12:20:00.337Z,26.27
2023-02-08T12:22:29.945Z,25.23
2023-02-08T12:25:18.481Z,22.67
2023-02-08T12:28:10.308Z,27.13
2023-02-08T12:30:50.708Z,22.33
2023-02-08T12:33:29.418Z,22.63
2023-02-08T12:36:24.451Z,22.45
2023-02-08T12:39:31.189Z,23.38
2023-02-08T12:42:13.571Z,25.23
2023-02-08T12:45:05.679Z,24.73
2023-02-08T12:48:04.143Z,21.25
2023-02-08T12:51:16.039Z,22.55
2023-02-08T12:53:53.084Z,24.00
2023-02-08T12:56:25.371Z,23.85
2023-02-08T12:59:04.804Z,25.77
2023-02-08T13:01:51.519Z,21.80
2023-02-08T13:04:42.717Z,20.50
2023-02-08T13:07:25.849Z,21.63
2023-02-08T13:10:27.002Z,23.98
2023-02-08T13:13:01.598Z,22.30
2023-02-08T13:15:43.364Z,24.55
2023-02-08T13:18:20.852Z,19.30
2023-02-08T13:20:52.553Z,21.33
2023-02-08T13:25:53.564Z,19.83
2023-02-08T13:28:26.681Z,23.05
2023-02-08T13:30:59.454Z,20.10
2023-02-08T13:34:06.638Z,18.60
2023-02-08T13:36:35.033Z,18.70
2023-02-08T13:39:23.886Z,17.73
2023-02-08T13:41:54.157Z,23.30
2023-02-08T13:44:33.514Z,21.90
2023-02-08T13:47:00.996Z,19.60
2023-02-08T13:49:46.951Z,21.08
2023-02-08T13:52:47.023Z,21.08
2023-02-08T13:55:30.949Z,21.30
2023-02-08T13:58:19.880Z,21.83
2023-02-08T14:01:17.614Z,21.75
2023-02-08T14:03:45.046Z,18.55
2023-02-08T14:06:23.923Z,22.58
2023-02-08T14:08:55.273Z,21.73
2023-02-08T14:11:45.588Z,18.50
2023-02-08T14:14:26.862Z,20.83
2023-02-08T14:17:25.215Z,20.27
2023-02-08T14:20:01.251Z,20.85
2023-02-08T14:22:36.285Z,22.33
2023-02-08T14:25:17.740Z,24.15
2023-02-08T14:27:52.779Z,19.63
2023-02-08T14:30:23.169Z,21.08
2023-02-08T14:32:54.510Z,20.85
2023-02-08T14:35:25.757Z,25.55
2023-02-08T14:38:24.271Z,22.48
2023-02-08T14:41:01.767Z,20.60
2023-02-08T14:43:43.193Z,22.83
2023-02-08T14:46:42.258Z,20.60
2023-02-08T14:49:13.746Z,21.05
2023-02-08T14:52:07.166Z,21.15
2023-02-08T14:54:41.831Z,25.70
2023-02-08T14:57:25.114Z,20.27
2023-02-08T14:59:54.190Z,21.42
2023-02-08T15:02:25.882Z,25.60
2023-02-08T15:07:38.699Z,23.13
2023-02-08T15:10:12.131Z,21.58
2023-02-08T15:12:43.255Z,25.42
2023-02-08T15:15:44.309Z,31.02
2023-02-08T15:18:24.325Z,25.63
2023-02-08T15:21:06.051Z,24.65
2023-02-08T15:23:33.879Z,22.25
2023-02-08T15:26:19.186Z,24.92
2023-02-08T15:28:46.431Z,22.08
2023-02-08T15:31:20.631Z,24.48
2023-02-08T15:33:48.446Z,25.40
2023-02-08T15:36:21.568Z,24.67
2023-02-08T15:38:49.216Z,21.83
2023-02-08T15:41:30.919Z,21.90
2023-02-08T15:44:19.285Z,24.98
2023-02-08T15:46:48.060Z,28.30
2023-02-08T15:49:23.230Z,26.58
2023-02-08T15:51:51.200Z,22.70
2023-02-08T15:54:19.408Z,24.38
2023-02-08T15:56:53.306Z,22.45
2023-02-08T15:59:25.654Z,25.92
2023-02-08T16:01:54.196Z,23.27
2023-02-08T16:04:22.033Z,24.02
2023-02-08T16:06:53.511Z,36.35
2023-02-08T16:09:25.545Z,25.40
2023-02-08T16:11:53.913Z,24.23
2023-02-08T16:14:28.782Z,24.77
2023-02-08T16:16:58.846Z,27.80
2023-02-08T16:19:31.568Z,25.65
2023-02-08T16:22:19.958Z,25.65
2023-02-08T16:24:47.872Z,28.33
2023-02-08T16:27:24.996Z,30.25
2023-02-08T16:29:52.741Z,31.40
2023-02-08T16:32:30.762Z,32.15
2023-02-08T16:34:58.753Z,31.75
2023-02-08T16:37:31.723Z,29.05
2023-02-08T16:40:27.429Z,28.52
2023-02-08T16:43:17.388Z,31.15
2023-02-08T16:45:45.028Z,32.67
2023-02-08T16:48:35.138Z,26.27
2023-02-08T16:51:04.819Z,31.40
2023-02-08T16:53:41.278Z,32.33
2023-02-08T16:56:10.183Z,31.42
2023-02-08T16:58:37.803Z,30.35
2023-02-08T17:01:05.461Z,31.40
2023-02-08T17:03:33.233Z,36.47
2023-02-08T17:06:01.545Z,28.48
2023-02-08T17:08:30.449Z,35.60
2023-02-08T17:10:59.183Z,36.67
2023-02-08T17:13:27.338Z,34.15
2023-02-08T17:15:55.222Z,36.70
2023-02-08T17:18:22.778Z,31.52
2023-02-08T17:20:51.048Z,34.80
2023-02-08T17:23:18.442Z,31.30
2023-02-08T17:25:46.091Z,34.67
2023-02-08T17:28:19.749Z,32.65
2023-02-08T17:30:48.054Z,34.30
2023-02-08T17:33:18.633Z,33.90
2023-02-08T17:35:48.404Z,38.13
2023-02-08T17:38:15.940Z,37.47
2023-02-08T17:40:44.076Z,41.25
2023-02-08T17:43:12.974Z,32.42
2023-02-08T17:45:43.119Z,32.80
2023-02-08T17:48:13.340Z,35.25
2023-02-08T17:50:43.833Z,33.88
2023-02-08T17:53:11.459Z,35.13
2023-02-08T17:55:42.500Z,36.08
2023-02-08T17:58:10.399Z,39.05
2023-02-08T18:00:38.540Z,43.85
2023-02-08T18:03:05.988Z,34.13
2023-02-08T18:05:33.578Z,34.33
2023-02-08T18:08:01.024Z,33.85
2023-02-08T18:10:28.502Z,34.45
2023-02-08T18:12:55.897Z,34.22
2023-02-08T18:15:24.326Z,33.90
2023-02-08T18:17:51.913Z,37.17
2023-02-08T18:20:19.232Z,33.25
2023-02-08T18:22:46.622Z,32.50
2023-02-08T18:25:16.151Z,33.70
2023-02-08T18:27:44.142Z,43.67
2023-02-08T18:30:12.596Z,41.40
2023-02-08T18:32:40.365Z,38.35
2023-02-08T18:35:08.978Z,45.33
2023-02-08T18:37:37.472Z,42.22
2023-02-08T18:40:06.915Z,47.58
2023-02-08T18:42:36.027Z,46.17
2023-02-08T18:45:05.159Z,47.38
2023-02-08T18:47:32.741Z,44.53
2023-02-08T18:50:00.009Z,41.58
2023-02-08T18:52:27.400Z,41.25
2023-02-08T18:54:54.594Z,39.03
2023-02-08T18:57:21.893Z,41.08
2023-02-08T18:59:49.499Z,44.83
2023-02-08T19:02:21.016Z,39.33
2023-02-08T19:04:49.003Z,39.85
2023-02-08T19:07:16.435Z,39.72
2023-02-08T19:09:44.304Z,43.45
2023-02-08T19:12:15.704Z,39.60
2023-02-08T19:14:43.881Z,38.08
2023-02-08T19:17:13.664Z,35.90
2023-02-08T19:19:42.450Z,40.28
2023-02-08T19:22:09.876Z,41.00
2023-02-08T19:24:37.312Z,40.38
2023-02-08T19:27:04.802Z,41.25
2023-02-08T19:29:33.796Z,39.20
2023-02-08T19:32:01.361Z,40.97
2023-02-08T19:34:28.759Z,41.25
2023-02-08T19:36:56.166Z,43.15
2023-02-08T19:39:26.045Z,37.22
2023-02-08T19:41:54.318Z,42.70
2023-02-08T19:44:22.095Z,41.05
2023-02-08T19:46:51.308Z,42.17
2023-02-08T19:49:18.975Z,40.35
2023-02-08T19:51:46.762Z,45.08
2023-02-08T19:54:17.084Z,39.80
2023-02-08T19:56:44.990Z,40.53
2023-02-08T19:59:27.469Z,42.53
2023-02-08T20:01:55.659Z,40.03
2023-02-08T20:04:23.568Z,40.67
2023-02-08T20:06:52.788Z,45.22
2023-02-08T20:09:20.175Z,42.78
2023-02-08T20:11:57.970Z,44.40
2023-02-08T20:14:29.319Z,40.78
2023-02-08T20:16:57.358Z,35.45
2023-02-08T20:19:25.322Z,40.60
2023-02-08T20:21:53.139Z,37.13
2023-02-08T20:24:20.998Z,40.47
2023-02-08T20:26:49.140Z,41.90
2023-02-08T20:29:17.202Z,38.67
2023-02-08T20:31:47.722Z,37.88
2023-02-08T20:34:16.876Z,43.85
2023-02-08T20:36:57.526Z,41.05
2023-02-08T20:39:32.230Z,38.70
2023-02-08T20:41:59.465Z,40.80
2023-02-08T20:44:28.688Z,38.95
2023-02-08T20:47:01.126Z,38.35
2023-02-08T20:49:29.490Z,39.83
2023-02-08T20:51:56.674Z,36.10
2023-02-08T20:54:24.813Z,41.22
2023-02-08T20:56:53.328Z,41.05
2023-02-08T20:59:20.971Z,42.60
2023-02-08T21:01:49.056Z,42.45
2023-02-08T21:04:18.137Z,41.10
2023-02-08T21:06:46.466Z,41.22
2023-02-08T21:09:16.690Z,34.80
2023-02-08T21:11:45.248Z,42.88
2023-02-08T21:14:18.749Z,40.40
2023-02-08T21:16:48.740Z,36.40
2023-02-08T21:19:17.406Z,38.15
2023-02-08T21:21:51.904Z,41.28
2023-02-08T21:26:46.914Z,37.92
2023-02-08T21:29:14.306Z,38.30
2023-02-08T21:31:42.100Z,39.53
2023-02-08T21:34:10.900Z,34.10
2023-02-08T21:36:38.297Z,41.25
2023-02-08T21:39:05.685Z,36.75
2023-02-08T21:41:34.522Z,37.90
2023-02-08T21:44:04.460Z,41.08
2023-02-08T21:46:32.609Z,38.50
2023-02-08T21:49:18.984Z,43.08
2023-02-08T21:52:05.155Z,39.78
2023-02-08T21:54:42.981Z,45.42
2023-02-08T21:57:22.978Z,34.83
2023-02-08T21:59:52.956Z,41.03
2023-02-08T22:02:26.102Z,39.22
2023-02-08T22:04:56.249Z,38.33
2023-02-08T22:07:25.017Z,37.95
2023-02-08T22:09:52.438Z,43.35
2023-02-08T22:12:22.061Z,35.47
2023-02-08T22:14:50.096Z,34.20
2023-02-08T22:17:17.722Z,34.17
2023-02-08T22:19:45.066Z,37.55
2023-02-08T22:22:12.706Z,36.13
2023-02-08T22:24:40.522Z,37.22
2023-02-08T22:27:07.983Z,39.28
2023-02-08T22:29:35.559Z,33.60
2023-02-08T22:32:03.069Z,36.63
2023-02-08T22:34:30.463Z,34.88
2023-02-08T22:36:58.006Z,32.08
2023-02-08T22:39:25.353Z,36.90
2023-02-08T22:41:52.790Z,38.58
2023-02-08T22:44:20.112Z,45.08
2023-02-08T22:46:47.367Z,43.13
2023-02-08T22:49:14.652Z,42.80
2023-02-08T22:51:41.956Z,41.55
2023-02-08T22:54:09.155Z,36.92
2023-02-08T22:56:36.574Z,37.05
2023-02-08T22:59:03.869Z,34.78
2023-02-08T23:01:31.229Z,38.47
2023-02-08T23:04:00.292Z,41.22
2023-02-08T23:06:27.620Z,33.45
2023-02-08T23:08:55.485Z,37.38
2023-02-08T23:11:22.836Z,34.65
2023-02-08T23:13:50.308Z,36.33
2023-02-08T23:16:19.116Z,33.50
2023-02-08T23:18:46.746Z,34.25
2023-02-08T23:21:20.184Z,31.60
2023-02-08T23:23:48.592Z,33.90
2023-02-08T23:26:18.888Z,34.75
2023-02-08T23:28:46.925Z,34.75
2023-02-08T23:31:14.878Z,39.55
2023-02-08T23:33:42.349Z,32.00
2023-02-08T23:36:15.706Z,33.58
2023-02-08T23:38:43.373Z,34.05
2023-02-08T23:41:17.166Z,34.38
2023-02-08T23:43:45.198Z,32.58
2023-02-08T23:46:16.757Z,33.50
2023-02-08T23:48:44.603Z,30.00
2023-02-08T23:51:11.793Z,31.13
2023-02-08T23:53:39.220Z,33.40
2023-02-08T23:56:15.022Z,35.42
2023-02-08T23:58:44.145Z,35.13
